Burkesville, Kentucky
Current Conditions -  °F | °C
As of 7:56 AM on Friday 19 Dec 2014 (Local Time) from KEKQ Reporting Station
Haze Haze  
Wind Chill: 26°   Ceiling: Unl
Heat Index: 31°   Visibility: 4mi
Dew Point: 28°   Wind: 5mph
Humidity: 88%   Direction: 40°NE
Pressure: 30.28"   Gusts: NA
Location:  36.79°N, 85.37°W
Report Text: KEKQ 191356Z AUTO 04004KT 4SM BR FEW013 M01/M02 A3028 RMK AO2 T10051022 SLP264
Loading
Personal Weather Stations






























Interactive Weather Map New forecast layout! Learn more

10-Day Weather Forecast

Advertisements
Track Severe Weather on mobile